sensor_id;sensor_type;location;lat;lon;timestamp;temperature;humidity
25436;DHT22;13363;52.772;-3.890;2023-04-06T00:01:28;11.40;99.90
25436;DHT22;13363;52.772;-3.890;2023-04-06T00:03:54;11.40;99.90
25436;DHT22;13363;52.772;-3.890;2023-04-06T00:06:20;11.40;99.90
25436;DHT22;13363;52.772;-3.890;2023-04-06T00:08:45;11.50;99.90
25436;DHT22;13363;52.772;-3.890;2023-04-06T00:11:11;11.50;99.90
25436;DHT22;13363;52.772;-3.890;2023-04-06T00:13:37;11.50;99.90
25436;DHT22;13363;52.772;-3.890;2023-04-06T00:16:03;11.50;99.90
25436;DHT22;13363;52.772;-3.890;2023-04-06T00:20:56;11.50;99.90
25436;DHT22;13363;52.772;-3.890;2023-04-06T00:23:22;11.50;99.90
25436;DHT22;13363;52.772;-3.890;2023-04-06T00:25:48;11.50;99.90
25436;DHT22;13363;52.772;-3.890;2023-04-06T00:28:13;11.50;99.90
25436;DHT22;13363;52.772;-3.890;2023-04-06T00:30:40;11.50;99.90
25436;DHT22;13363;52.772;-3.890;2023-04-06T00:33:06;11.50;99.90
25436;DHT22;13363;52.772;-3.890;2023-04-06T00:35:31;11.50;99.90
25436;DHT22;13363;52.772;-3.890;2023-04-06T00:37:57;11.50;99.90
25436;DHT22;13363;52.772;-3.890;2023-04-06T00:40:23;11.50;99.90
25436;DHT22;13363;52.772;-3.890;2023-04-06T00:42:49;11.50;99.90
25436;DHT22;13363;52.772;-3.890;2023-04-06T00:45:15;11.50;99.90
25436;DHT22;13363;52.772;-3.890;2023-04-06T00:47:41;11.50;99.90
25436;DHT22;13363;52.772;-3.890;2023-04-06T00:50:07;11.50;99.90
25436;DHT22;13363;52.772;-3.890;2023-04-06T00:52:34;11.40;99.90
25436;DHT22;13363;52.772;-3.890;2023-04-06T00:55:00;11.50;99.90
25436;DHT22;13363;52.772;-3.890;2023-04-06T00:57:26;11.40;99.90
25436;DHT22;13363;52.772;-3.890;2023-04-06T00:59:53;11.50;99.90
25436;DHT22;13363;52.772;-3.890;2023-04-06T01:02:18;11.50;99.90
25436;DHT22;13363;52.772;-3.890;2023-04-06T01:04:44;11.50;99.90
25436;DHT22;13363;52.772;-3.890;2023-04-06T01:07:10;11.50;99.90
25436;DHT22;13363;52.772;-3.890;2023-04-06T01:09:36;11.40;99.90
25436;DHT22;13363;52.772;-3.890;2023-04-06T01:12:02;11.40;99.90
25436;DHT22;13363;52.772;-3.890;2023-04-06T01:14:28;11.40;99.90
25436;DHT22;13363;52.772;-3.890;2023-04-06T01:16:57;11.40;99.90
25436;DHT22;13363;52.772;-3.890;2023-04-06T01:19:23;11.40;99.90
25436;DHT22;13363;52.772;-3.890;2023-04-06T01:21:49;11.50;99.90
25436;DHT22;13363;52.772;-3.890;2023-04-06T01:24:15;11.50;99.90
25436;DHT22;13363;52.772;-3.890;2023-04-06T01:26:42;11.40;99.90
25436;DHT22;13363;52.772;-3.890;2023-04-06T01:29:08;11.40;99.90
25436;DHT22;13363;52.772;-3.890;2023-04-06T01:31:34;11.40;99.90
25436;DHT22;13363;52.772;-3.890;2023-04-06T01:33:59;11.50;99.90
25436;DHT22;13363;52.772;-3.890;2023-04-06T01:36:25;11.40;99.90
25436;DHT22;13363;52.772;-3.890;2023-04-06T01:38:51;11.40;99.90
25436;DHT22;13363;52.772;-3.890;2023-04-06T01:41:17;11.30;99.90
25436;DHT22;13363;52.772;-3.890;2023-04-06T01:43:44;11.30;99.90
25436;DHT22;13363;52.772;-3.890;2023-04-06T01:46:10;11.20;99.90
25436;DHT22;13363;52.772;-3.890;2023-04-06T01:48:36;11.20;99.90
25436;DHT22;13363;52.772;-3.890;2023-04-06T01:51:02;11.30;99.90
25436;DHT22;13363;52.772;-3.890;2023-04-06T01:53:27;11.40;99.90
25436;DHT22;13363;52.772;-3.890;2023-04-06T01:55:53;11.30;99.90
25436;DHT22;13363;52.772;-3.890;2023-04-06T01:58:18;11.30;99.90
25436;DHT22;13363;52.772;-3.890;2023-04-06T02:03:10;11.40;99.90
25436;DHT22;13363;52.772;-3.890;2023-04-06T02:05:36;11.30;99.90
25436;DHT22;13363;52.772;-3.890;2023-04-06T02:08:07;11.30;99.90
25436;DHT22;13363;52.772;-3.890;2023-04-06T02:10:35;11.30;99.90
25436;DHT22;13363;52.772;-3.890;2023-04-06T02:13:01;11.30;99.90
25436;DHT22;13363;52.772;-3.890;2023-04-06T02:15:27;11.30;99.90
25436;DHT22;13363;52.772;-3.890;2023-04-06T02:17:53;11.30;99.90
25436;DHT22;13363;52.772;-3.890;2023-04-06T02:20:19;11.30;99.90
25436;DHT22;13363;52.772;-3.890;2023-04-06T02:22:45;11.30;99.90
25436;DHT22;13363;52.772;-3.890;2023-04-06T02:25:10;11.30;99.90
25436;DHT22;13363;52.772;-3.890;2023-04-06T02:27:37;11.30;99.90
25436;DHT22;13363;52.772;-3.890;2023-04-06T02:30:03;11.30;99.90
25436;DHT22;13363;52.772;-3.890;2023-04-06T02:32:29;11.30;99.90
25436;DHT22;13363;52.772;-3.890;2023-04-06T02:34:55;11.40;99.90
25436;DHT22;13363;52.772;-3.890;2023-04-06T02:37:21;11.40;99.90
25436;DHT22;13363;52.772;-3.890;2023-04-06T02:39:48;11.40;99.90
25436;DHT22;13363;52.772;-3.890;2023-04-06T02:42:14;11.50;99.90
25436;DHT22;13363;52.772;-3.890;2023-04-06T02:44:41;11.40;99.90
25436;DHT22;13363;52.772;-3.890;2023-04-06T02:47:07;11.40;99.90
25436;DHT22;13363;52.772;-3.890;2023-04-06T02:49:33;11.30;99.90
25436;DHT22;13363;52.772;-3.890;2023-04-06T02:51:58;11.20;99.90
25436;DHT22;13363;52.772;-3.890;2023-04-06T02:54:24;11.20;99.90
25436;DHT22;13363;52.772;-3.890;2023-04-06T02:56:50;11.20;99.90
25436;DHT22;13363;52.772;-3.890;2023-04-06T02:59:15;11.10;99.90
25436;DHT22;13363;52.772;-3.890;2023-04-06T03:01:41;11.10;99.90
25436;DHT22;13363;52.772;-3.890;2023-04-06T03:04:07;11.00;99.90
25436;DHT22;13363;52.772;-3.890;2023-04-06T03:06:32;11.10;99.90
25436;DHT22;13363;52.772;-3.890;2023-04-06T03:08:58;11.10;99.90
25436;DHT22;13363;52.772;-3.890;2023-04-06T03:11:24;11.20;99.90
25436;DHT22;13363;52.772;-3.890;2023-04-06T03:13:51;11.10;99.90
25436;DHT22;13363;52.772;-3.890;2023-04-06T03:16:17;11.10;99.90
25436;DHT22;13363;52.772;-3.890;2023-04-06T03:18:43;11.00;99.90
25436;DHT22;13363;52.772;-3.890;2023-04-06T03:21:10;11.00;99.90
25436;DHT22;13363;52.772;-3.890;2023-04-06T03:23:36;10.90;99.90
25436;DHT22;13363;52.772;-3.890;2023-04-06T03:26:02;11.00;99.90
25436;DHT22;13363;52.772;-3.890;2023-04-06T03:28:29;11.00;99.90
25436;DHT22;13363;52.772;-3.890;2023-04-06T03:30:55;10.90;99.90
25436;DHT22;13363;52.772;-3.890;2023-04-06T03:33:20;10.90;99.90
25436;DHT22;13363;52.772;-3.890;2023-04-06T03:35:46;10.90;99.90
25436;DHT22;13363;52.772;-3.890;2023-04-06T03:38:12;10.80;99.90
25436;DHT22;13363;52.772;-3.890;2023-04-06T03:40:37;10.80;99.90
25436;DHT22;13363;52.772;-3.890;2023-04-06T03:43:04;10.70;99.90
25436;DHT22;13363;52.772;-3.890;2023-04-06T03:45:29;10.60;99.90
25436;DHT22;13363;52.772;-3.890;2023-04-06T03:47:55;10.60;99.90
25436;DHT22;13363;52.772;-3.890;2023-04-06T03:50:21;10.60;99.90
25436;DHT22;13363;52.772;-3.890;2023-04-06T03:52:47;10.60;99.90
25436;DHT22;13363;52.772;-3.890;2023-04-06T03:55:13;10.50;99.90
25436;DHT22;13363;52.772;-3.890;2023-04-06T03:57:38;10.50;99.90
25436;DHT22;13363;52.772;-3.890;2023-04-06T04:00:04;10.50;99.90
25436;DHT22;13363;52.772;-3.890;2023-04-06T04:02:31;10.40;99.90
25436;DHT22;13363;52.772;-3.890;2023-04-06T04:04:56;10.30;99.90
25436;DHT22;13363;52.772;-3.890;2023-04-06T04:07:22;10.30;99.90
25436;DHT22;13363;52.772;-3.890;2023-04-06T04:09:48;10.20;99.90
25436;DHT22;13363;52.772;-3.890;2023-04-06T04:12:13;10.10;99.90
25436;DHT22;13363;52.772;-3.890;2023-04-06T04:14:40;10.10;99.90
25436;DHT22;13363;52.772;-3.890;2023-04-06T04:17:06;10.10;99.90
25436;DHT22;13363;52.772;-3.890;2023-04-06T04:19:31;10.00;99.90
25436;DHT22;13363;52.772;-3.890;2023-04-06T04:21:57;10.00;99.90
25436;DHT22;13363;52.772;-3.890;2023-04-06T04:24:23;10.00;99.90
25436;DHT22;13363;52.772;-3.890;2023-04-06T04:26:48;10.00;99.90
25436;DHT22;13363;52.772;-3.890;2023-04-06T04:29:14;10.00;99.90
25436;DHT22;13363;52.772;-3.890;2023-04-06T04:31:40;10.00;99.90
25436;DHT22;13363;52.772;-3.890;2023-04-06T04:34:06;10.00;99.90
25436;DHT22;13363;52.772;-3.890;2023-04-06T04:36:32;10.00;99.90
25436;DHT22;13363;52.772;-3.890;2023-04-06T04:38:58;9.90;99.90
25436;DHT22;13363;52.772;-3.890;2023-04-06T04:41:26;9.90;99.90
25436;DHT22;13363;52.772;-3.890;2023-04-06T04:43:52;9.90;99.90
25436;DHT22;13363;52.772;-3.890;2023-04-06T04:46:17;9.80;99.90
25436;DHT22;13363;52.772;-3.890;2023-04-06T04:48:43;9.70;99.90
25436;DHT22;13363;52.772;-3.890;2023-04-06T04:51:09;9.60;99.90
25436;DHT22;13363;52.772;-3.890;2023-04-06T04:53:34;9.50;99.90
25436;DHT22;13363;52.772;-3.890;2023-04-06T04:56:00;9.40;99.90
25436;DHT22;13363;52.772;-3.890;2023-04-06T04:58:26;9.30;99.90
25436;DHT22;13363;52.772;-3.890;2023-04-06T05:00:52;9.30;99.90
25436;DHT22;13363;52.772;-3.890;2023-04-06T05:03:25;9.30;99.90
25436;DHT22;13363;52.772;-3.890;2023-04-06T05:05:51;9.30;99.90
25436;DHT22;13363;52.772;-3.890;2023-04-06T05:08:17;9.40;99.90
25436;DHT22;13363;52.772;-3.890;2023-04-06T05:10:43;9.40;99.90
25436;DHT22;13363;52.772;-3.890;2023-04-06T05:13:09;9.50;99.90
25436;DHT22;13363;52.772;-3.890;2023-04-06T05:15:35;9.50;99.90
25436;DHT22;13363;52.772;-3.890;2023-04-06T05:18:04;9.40;99.90
25436;DHT22;13363;52.772;-3.890;2023-04-06T05:20:30;9.50;99.90
25436;DHT22;13363;52.772;-3.890;2023-04-06T05:22:56;9.50;99.90
25436;DHT22;13363;52.772;-3.890;2023-04-06T05:25:21;9.50;99.90
25436;DHT22;13363;52.772;-3.890;2023-04-06T05:27:47;9.50;99.90
25436;DHT22;13363;52.772;-3.890;2023-04-06T05:30:13;9.50;99.90
25436;DHT22;13363;52.772;-3.890;2023-04-06T05:32:39;9.50;99.90
25436;DHT22;13363;52.772;-3.890;2023-04-06T05:35:05;9.50;99.90
25436;DHT22;13363;52.772;-3.890;2023-04-06T05:37:31;9.50;99.90
25436;DHT22;13363;52.772;-3.890;2023-04-06T05:39:56;9.50;99.90
25436;DHT22;13363;52.772;-3.890;2023-04-06T05:42:22;9.50;99.90
25436;DHT22;13363;52.772;-3.890;2023-04-06T05:44:48;9.50;99.90
25436;DHT22;13363;52.772;-3.890;2023-04-06T05:47:14;9.50;99.90
25436;DHT22;13363;52.772;-3.890;2023-04-06T05:49:42;9.50;99.90
25436;DHT22;13363;52.772;-3.890;2023-04-06T05:52:08;9.50;99.90
25436;DHT22;13363;52.772;-3.890;2023-04-06T05:54:35;9.50;99.90
25436;DHT22;13363;52.772;-3.890;2023-04-06T05:57:02;9.40;99.90
25436;DHT22;13363;52.772;-3.890;2023-04-06T05:59:29;9.50;99.90
25436;DHT22;13363;52.772;-3.890;2023-04-06T06:01:55;9.50;99.90
25436;DHT22;13363;52.772;-3.890;2023-04-06T06:04:21;9.50;99.90
25436;DHT22;13363;52.772;-3.890;2023-04-06T06:06:46;9.50;99.90
25436;DHT22;13363;52.772;-3.890;2023-04-06T06:09:12;9.50;99.90
25436;DHT22;13363;52.772;-3.890;2023-04-06T06:11:38;9.50;99.90
25436;DHT22;13363;52.772;-3.890;2023-04-06T06:14:04;9.50;99.90
25436;DHT22;13363;52.772;-3.890;2023-04-06T06:16:29;9.60;99.90
25436;DHT22;13363;52.772;-3.890;2023-04-06T06:18:55;9.60;99.90
25436;DHT22;13363;52.772;-3.890;2023-04-06T06:21:21;9.50;99.90
25436;DHT22;13363;52.772;-3.890;2023-04-06T06:23:47;9.50;99.90
25436;DHT22;13363;52.772;-3.890;2023-04-06T06:26:14;9.50;99.90
25436;DHT22;13363;52.772;-3.890;2023-04-06T06:28:40;9.50;99.90
25436;DHT22;13363;52.772;-3.890;2023-04-06T06:31:06;9.50;99.90
25436;DHT22;13363;52.772;-3.890;2023-04-06T06:33:32;9.40;99.90
25436;DHT22;13363;52.772;-3.890;2023-04-06T06:35:58;9.50;99.90
25436;DHT22;13363;52.772;-3.890;2023-04-06T06:38:24;9.50;99.90
25436;DHT22;13363;52.772;-3.890;2023-04-06T06:40:50;9.60;99.90
25436;DHT22;13363;52.772;-3.890;2023-04-06T06:43:16;9.70;99.90
25436;DHT22;13363;52.772;-3.890;2023-04-06T06:45:42;9.80;99.90
25436;DHT22;13363;52.772;-3.890;2023-04-06T06:48:07;9.70;99.90
25436;DHT22;13363;52.772;-3.890;2023-04-06T06:50:33;9.80;99.90
25436;DHT22;13363;52.772;-3.890;2023-04-06T06:52:59;9.80;99.90
25436;DHT22;13363;52.772;-3.890;2023-04-06T06:55:24;9.90;99.90
25436;DHT22;13363;52.772;-3.890;2023-04-06T06:57:52;9.90;99.90
25436;DHT22;13363;52.772;-3.890;2023-04-06T07:00:18;10.00;99.90
25436;DHT22;13363;52.772;-3.890;2023-04-06T07:02:46;10.00;99.90
25436;DHT22;13363;52.772;-3.890;2023-04-06T07:05:12;10.10;99.90
25436;DHT22;13363;52.772;-3.890;2023-04-06T07:07:38;10.10;99.90
25436;DHT22;13363;52.772;-3.890;2023-04-06T07:10:04;10.20;99.90
25436;DHT22;13363;52.772;-3.890;2023-04-06T07:12:30;10.20;99.90
25436;DHT22;13363;52.772;-3.890;2023-04-06T07:14:55;10.30;99.90
25436;DHT22;13363;52.772;-3.890;2023-04-06T07:17:21;10.30;99.90
25436;DHT22;13363;52.772;-3.890;2023-04-06T07:19:47;10.30;99.90
25436;DHT22;13363;52.772;-3.890;2023-04-06T07:22:13;10.30;99.90
25436;DHT22;13363;52.772;-3.890;2023-04-06T07:24:38;10.40;99.90
25436;DHT22;13363;52.772;-3.890;2023-04-06T07:27:04;10.60;99.90
25436;DHT22;13363;52.772;-3.890;2023-04-06T07:29:30;10.80;99.90
25436;DHT22;13363;52.772;-3.890;2023-04-06T07:31:56;10.80;99.90
25436;DHT22;13363;52.772;-3.890;2023-04-06T07:34:22;10.70;99.90
25436;DHT22;13363;52.772;-3.890;2023-04-06T07:36:47;10.70;99.90
25436;DHT22;13363;52.772;-3.890;2023-04-06T07:39:14;10.70;99.90
25436;DHT22;13363;52.772;-3.890;2023-04-06T07:41:40;10.70;99.90
25436;DHT22;13363;52.772;-3.890;2023-04-06T07:44:07;10.70;99.90
25436;DHT22;13363;52.772;-3.890;2023-04-06T07:46:33;10.80;99.90
25436;DHT22;13363;52.772;-3.890;2023-04-06T07:48:59;11.00;99.90
25436;DHT22;13363;52.772;-3.890;2023-04-06T07:51:25;11.20;99.90
25436;DHT22;13363;52.772;-3.890;2023-04-06T07:53:51;11.40;99.90
25436;DHT22;13363;52.772;-3.890;2023-04-06T07:56:17;11.60;99.90
25436;DHT22;13363;52.772;-3.890;2023-04-06T07:58:43;11.80;99.90
25436;DHT22;13363;52.772;-3.890;2023-04-06T08:01:10;11.90;99.90
25436;DHT22;13363;52.772;-3.890;2023-04-06T08:03:36;11.80;99.90
25436;DHT22;13363;52.772;-3.890;2023-04-06T08:06:02;11.60;99.90
25436;DHT22;13363;52.772;-3.890;2023-04-06T08:08:28;11.60;99.90
25436;DHT22;13363;52.772;-3.890;2023-04-06T08:13:20;13.10;99.90
25436;DHT22;13363;52.772;-3.890;2023-04-06T08:15:46;14.00;99.90
25436;DHT22;13363;52.772;-3.890;2023-04-06T08:18:12;14.00;99.90
25436;DHT22;13363;52.772;-3.890;2023-04-06T08:20:39;13.40;99.90
25436;DHT22;13363;52.772;-3.890;2023-04-06T08:25:33;12.50;99.90
25436;DHT22;13363;52.772;-3.890;2023-04-06T08:27:59;12.50;99.90
25436;DHT22;13363;52.772;-3.890;2023-04-06T08:30:25;12.60;99.90
25436;DHT22;13363;52.772;-3.890;2023-04-06T08:32:51;12.80;99.90
25436;DHT22;13363;52.772;-3.890;2023-04-06T08:35:17;12.60;99.90
25436;DHT22;13363;52.772;-3.890;2023-04-06T08:37:44;12.80;99.90
25436;DHT22;13363;52.772;-3.890;2023-04-06T08:40:10;13.10;99.90
25436;DHT22;13363;52.772;-3.890;2023-04-06T08:42:40;12.50;99.90
25436;DHT22;13363;52.772;-3.890;2023-04-06T08:45:09;12.20;99.90
25436;DHT22;13363;52.772;-3.890;2023-04-06T08:47:36;12.40;99.90
25436;DHT22;13363;52.772;-3.890;2023-04-06T08:50:05;12.50;99.90
25436;DHT22;13363;52.772;-3.890;2023-04-06T08:52:32;12.70;99.90
25436;DHT22;13363;52.772;-3.890;2023-04-06T08:54:59;13.20;99.90
25436;DHT22;13363;52.772;-3.890;2023-04-06T08:57:26;13.50;99.90
25436;DHT22;13363;52.772;-3.890;2023-04-06T08:59:52;13.00;99.90
25436;DHT22;13363;52.772;-3.890;2023-04-06T09:02:19;12.90;99.90
25436;DHT22;13363;52.772;-3.890;2023-04-06T09:04:49;12.70;99.90
25436;DHT22;13363;52.772;-3.890;2023-04-06T09:07:18;12.80;99.90
25436;DHT22;13363;52.772;-3.890;2023-04-06T09:09:44;13.00;99.90
25436;DHT22;13363;52.772;-3.890;2023-04-06T09:12:35;13.40;99.90
25436;DHT22;13363;52.772;-3.890;2023-04-06T09:15:01;13.00;99.90
25436;DHT22;13363;52.772;-3.890;2023-04-06T09:17:32;13.00;99.90
25436;DHT22;13363;52.772;-3.890;2023-04-06T09:20:02;13.20;99.90
25436;DHT22;13363;52.772;-3.890;2023-04-06T09:22:55;13.50;99.90
25436;DHT22;13363;52.772;-3.890;2023-04-06T09:25:22;13.60;99.90
25436;DHT22;13363;52.772;-3.890;2023-04-06T09:28:04;13.30;99.90
25436;DHT22;13363;52.772;-3.890;2023-04-06T09:30:30;12.80;99.90
25436;DHT22;13363;52.772;-3.890;2023-04-06T09:32:57;12.40;99.90
25436;DHT22;13363;52.772;-3.890;2023-04-06T09:35:23;12.30;99.90
25436;DHT22;13363;52.772;-3.890;2023-04-06T09:37:52;12.40;99.90
25436;DHT22;13363;52.772;-3.890;2023-04-06T09:40:19;12.70;99.90
25436;DHT22;13363;52.772;-3.890;2023-04-06T09:42:46;13.10;99.90
25436;DHT22;13363;52.772;-3.890;2023-04-06T09:45:12;13.20;99.90
25436;DHT22;13363;52.772;-3.890;2023-04-06T09:47:40;13.30;99.90
25436;DHT22;13363;52.772;-3.890;2023-04-06T09:50:09;13.10;99.90
25436;DHT22;13363;52.772;-3.890;2023-04-06T09:52:56;12.80;99.90
25436;DHT22;13363;52.772;-3.890;2023-04-06T09:55:28;12.80;99.90
25436;DHT22;13363;52.772;-3.890;2023-04-06T09:58:06;12.60;99.90
25436;DHT22;13363;52.772;-3.890;2023-04-06T10:00:40;12.60;99.90
25436;DHT22;13363;52.772;-3.890;2023-04-06T10:05:47;12.80;99.90
25436;DHT22;13363;52.772;-3.890;2023-04-06T10:08:15;13.40;99.90
25436;DHT22;13363;52.772;-3.890;2023-04-06T10:10:41;13.70;99.90
25436;DHT22;13363;52.772;-3.890;2023-04-06T10:13:10;14.00;99.90
25436;DHT22;13363;52.772;-3.890;2023-04-06T10:15:38;14.20;99.90
25436;DHT22;13363;52.772;-3.890;2023-04-06T10:18:03;13.70;99.90
25436;DHT22;13363;52.772;-3.890;2023-04-06T10:21:09;13.70;99.90
25436;DHT22;13363;52.772;-3.890;2023-04-06T10:23:41;14.60;99.90
25436;DHT22;13363;52.772;-3.890;2023-04-06T10:26:14;14.90;99.90
25436;DHT22;13363;52.772;-3.890;2023-04-06T10:28:47;14.50;99.90
25436;DHT22;13363;52.772;-3.890;2023-04-06T10:31:13;15.00;99.90
25436;DHT22;13363;52.772;-3.890;2023-04-06T10:33:40;14.50;99.90
25436;DHT22;13363;52.772;-3.890;2023-04-06T10:36:13;14.20;99.90
25436;DHT22;13363;52.772;-3.890;2023-04-06T10:38:40;14.10;99.90
25436;DHT22;13363;52.772;-3.890;2023-04-06T10:41:10;14.10;99.90
25436;DHT22;13363;52.772;-3.890;2023-04-06T10:43:38;13.60;99.90
25436;DHT22;13363;52.772;-3.890;2023-04-06T10:46:05;13.30;99.90
25436;DHT22;13363;52.772;-3.890;2023-04-06T10:48:39;13.30;99.90
25436;DHT22;13363;52.772;-3.890;2023-04-06T10:51:13;12.90;99.90
25436;DHT22;13363;52.772;-3.890;2023-04-06T10:53:43;12.70;99.90
25436;DHT22;13363;52.772;-3.890;2023-04-06T10:56:12;12.50;99.90
25436;DHT22;13363;52.772;-3.890;2023-04-06T10:58:43;12.10;99.90
25436;DHT22;13363;52.772;-3.890;2023-04-06T11:01:11;12.10;99.90
25436;DHT22;13363;52.772;-3.890;2023-04-06T11:03:46;11.80;99.90
25436;DHT22;13363;52.772;-3.890;2023-04-06T11:06:29;11.50;99.90
25436;DHT22;13363;52.772;-3.890;2023-04-06T11:08:57;11.40;99.90
25436;DHT22;13363;52.772;-3.890;2023-04-06T11:11:24;11.50;99.90
25436;DHT22;13363;52.772;-3.890;2023-04-06T11:13:59;11.70;99.90
25436;DHT22;13363;52.772;-3.890;2023-04-06T11:16:33;11.90;99.90
25436;DHT22;13363;52.772;-3.890;2023-04-06T11:19:02;12.00;99.90
25436;DHT22;13363;52.772;-3.890;2023-04-06T11:21:54;12.30;99.90
25436;DHT22;13363;52.772;-3.890;2023-04-06T11:26:50;12.90;99.90
25436;DHT22;13363;52.772;-3.890;2023-04-06T11:29:18;13.00;99.90
25436;DHT22;13363;52.772;-3.890;2023-04-06T11:31:53;13.10;99.90
25436;DHT22;13363;52.772;-3.890;2023-04-06T11:34:23;12.70;99.90
25436;DHT22;13363;52.772;-3.890;2023-04-06T11:37:03;12.90;99.90
25436;DHT22;13363;52.772;-3.890;2023-04-06T11:39:31;13.20;99.90
25436;DHT22;13363;52.772;-3.890;2023-04-06T11:42:01;13.30;99.90
25436;DHT22;13363;52.772;-3.890;2023-04-06T11:44:34;13.30;99.90
25436;DHT22;13363;52.772;-3.890;2023-04-06T11:47:04;13.20;99.90
25436;DHT22;13363;52.772;-3.890;2023-04-06T11:49:32;13.50;99.90
25436;DHT22;13363;52.772;-3.890;2023-04-06T11:51:59;13.40;99.90
25436;DHT22;13363;52.772;-3.890;2023-04-06T11:54:37;13.50;99.90
25436;DHT22;13363;52.772;-3.890;2023-04-06T11:57:05;13.70;99.90
25436;DHT22;13363;52.772;-3.890;2023-04-06T11:59:32;14.00;99.90
25436;DHT22;13363;52.772;-3.890;2023-04-06T12:01:58;13.90;99.90
25436;DHT22;13363;52.772;-3.890;2023-04-06T12:04:24;13.70;99.90
25436;DHT22;13363;52.772;-3.890;2023-04-06T12:06:50;14.00;99.90
25436;DHT22;13363;52.772;-3.890;2023-04-06T12:09:16;13.60;99.90
25436;DHT22;13363;52.772;-3.890;2023-04-06T12:11:43;13.30;99.90
25436;DHT22;13363;52.772;-3.890;2023-04-06T12:14:08;13.20;99.90
25436;DHT22;13363;52.772;-3.890;2023-04-06T12:16:35;12.80;99.90
25436;DHT22;13363;52.772;-3.890;2023-04-06T12:19:00;13.10;99.90
25436;DHT22;13363;52.772;-3.890;2023-04-06T12:21:27;12.60;99.90
25436;DHT22;13363;52.772;-3.890;2023-04-06T12:23:54;12.40;99.90
25436;DHT22;13363;52.772;-3.890;2023-04-06T12:26:20;12.40;99.90
25436;DHT22;13363;52.772;-3.890;2023-04-06T12:28:46;12.30;99.90
25436;DHT22;13363;52.772;-3.890;2023-04-06T12:31:16;12.00;99.90
25436;DHT22;13363;52.772;-3.890;2023-04-06T12:33:42;12.30;99.90
25436;DHT22;13363;52.772;-3.890;2023-04-06T12:36:14;12.70;99.90
25436;DHT22;13363;52.772;-3.890;2023-04-06T12:38:41;13.00;99.90
25436;DHT22;13363;52.772;-3.890;2023-04-06T12:41:07;13.10;99.90
25436;DHT22;13363;52.772;-3.890;2023-04-06T12:43:33;13.50;99.90
25436;DHT22;13363;52.772;-3.890;2023-04-06T12:46:05;13.30;99.90
25436;DHT22;13363;52.772;-3.890;2023-04-06T12:48:31;13.30;99.90
25436;DHT22;13363;52.772;-3.890;2023-04-06T12:50:58;13.30;99.90
25436;DHT22;13363;52.772;-3.890;2023-04-06T12:53:25;13.00;99.90
25436;DHT22;13363;52.772;-3.890;2023-04-06T12:55:51;12.90;99.90
25436;DHT22;13363;52.772;-3.890;2023-04-06T12:58:17;13.00;99.90
25436;DHT22;13363;52.772;-3.890;2023-04-06T13:00:43;13.00;99.90
25436;DHT22;13363;52.772;-3.890;2023-04-06T13:03:09;12.80;99.90
25436;DHT22;13363;52.772;-3.890;2023-04-06T13:05:35;12.80;99.90
25436;DHT22;13363;52.772;-3.890;2023-04-06T13:08:01;12.50;99.90
25436;DHT22;13363;52.772;-3.890;2023-04-06T13:10:26;12.50;99.90
25436;DHT22;13363;52.772;-3.890;2023-04-06T13:12:52;12.50;99.90
25436;DHT22;13363;52.772;-3.890;2023-04-06T13:15:18;13.00;99.90
25436;DHT22;13363;52.772;-3.890;2023-04-06T13:17:44;13.30;99.90
25436;DHT22;13363;52.772;-3.890;2023-04-06T13:20:10;13.10;99.90
25436;DHT22;13363;52.772;-3.890;2023-04-06T13:22:35;13.20;99.90
25436;DHT22;13363;52.772;-3.890;2023-04-06T13:25:02;12.90;99.90
25436;DHT22;13363;52.772;-3.890;2023-04-06T13:27:27;12.90;99.90
25436;DHT22;13363;52.772;-3.890;2023-04-06T13:29:55;13.00;99.90
25436;DHT22;13363;52.772;-3.890;2023-04-06T13:32:21;13.10;99.90
25436;DHT22;13363;52.772;-3.890;2023-04-06T13:34:47;13.70;99.90
25436;DHT22;13363;52.772;-3.890;2023-04-06T13:37:14;13.90;99.90
25436;DHT22;13363;52.772;-3.890;2023-04-06T13:39:40;14.20;99.90
25436;DHT22;13363;52.772;-3.890;2023-04-06T13:42:06;14.60;99.90
25436;DHT22;13363;52.772;-3.890;2023-04-06T13:44:32;14.50;99.90
25436;DHT22;13363;52.772;-3.890;2023-04-06T13:46:58;14.30;99.90
25436;DHT22;13363;52.772;-3.890;2023-04-06T13:49:24;14.30;99.90
25436;DHT22;13363;52.772;-3.890;2023-04-06T13:51:50;14.00;99.90
25436;DHT22;13363;52.772;-3.890;2023-04-06T13:54:16;13.80;99.90
25436;DHT22;13363;52.772;-3.890;2023-04-06T13:56:42;13.60;99.90
25436;DHT22;13363;52.772;-3.890;2023-04-06T13:59:10;13.50;99.90
25436;DHT22;13363;52.772;-3.890;2023-04-06T14:01:40;13.30;99.90
25436;DHT22;13363;52.772;-3.890;2023-04-06T14:04:06;13.70;99.90
25436;DHT22;13363;52.772;-3.890;2023-04-06T14:06:32;13.70;99.90
25436;DHT22;13363;52.772;-3.890;2023-04-06T14:08:58;14.00;99.90
25436;DHT22;13363;52.772;-3.890;2023-04-06T14:11:23;13.80;99.90
25436;DHT22;13363;52.772;-3.890;2023-04-06T14:13:49;13.60;99.90
25436;DHT22;13363;52.772;-3.890;2023-04-06T14:16:15;13.50;99.90
25436;DHT22;13363;52.772;-3.890;2023-04-06T14:18:43;13.70;99.90
25436;DHT22;13363;52.772;-3.890;2023-04-06T14:21:09;13.90;99.90
25436;DHT22;13363;52.772;-3.890;2023-04-06T14:23:35;13.90;99.90
25436;DHT22;13363;52.772;-3.890;2023-04-06T14:26:02;14.00;99.90
25436;DHT22;13363;52.772;-3.890;2023-04-06T14:28:29;14.00;99.90
25436;DHT22;13363;52.772;-3.890;2023-04-06T14:30:54;13.80;99.90
25436;DHT22;13363;52.772;-3.890;2023-04-06T14:33:20;13.90;99.90
25436;DHT22;13363;52.772;-3.890;2023-04-06T14:35:47;14.00;99.90
25436;DHT22;13363;52.772;-3.890;2023-04-06T14:38:13;13.90;99.90
25436;DHT22;13363;52.772;-3.890;2023-04-06T14:40:38;14.00;99.90
25436;DHT22;13363;52.772;-3.890;2023-04-06T14:43:04;14.20;99.90
25436;DHT22;13363;52.772;-3.890;2023-04-06T14:45:33;14.40;99.90
25436;DHT22;13363;52.772;-3.890;2023-04-06T14:47:59;14.30;99.90
25436;DHT22;13363;52.772;-3.890;2023-04-06T14:50:25;14.50;99.90
25436;DHT22;13363;52.772;-3.890;2023-04-06T14:52:50;14.40;99.90
25436;DHT22;13363;52.772;-3.890;2023-04-06T14:55:16;14.30;99.90
25436;DHT22;13363;52.772;-3.890;2023-04-06T14:57:42;14.10;99.90
25436;DHT22;13363;52.772;-3.890;2023-04-06T15:00:08;13.90;99.90
25436;DHT22;13363;52.772;-3.890;2023-04-06T15:02:35;13.90;99.90
25436;DHT22;13363;52.772;-3.890;2023-04-06T15:05:00;13.60;99.90
25436;DHT22;13363;52.772;-3.890;2023-04-06T15:07:26;13.70;99.90
25436;DHT22;13363;52.772;-3.890;2023-04-06T15:09:52;13.50;99.90
25436;DHT22;13363;52.772;-3.890;2023-04-06T15:12:17;13.50;99.90
25436;DHT22;13363;52.772;-3.890;2023-04-06T15:14:43;13.60;99.90
25436;DHT22;13363;52.772;-3.890;2023-04-06T15:19:35;13.80;99.90
25436;DHT22;13363;52.772;-3.890;2023-04-06T15:22:01;13.80;99.90
25436;DHT22;13363;52.772;-3.890;2023-04-06T15:24:27;13.50;99.90
25436;DHT22;13363;52.772;-3.890;2023-04-06T15:26:52;13.40;99.90
25436;DHT22;13363;52.772;-3.890;2023-04-06T15:29:18;13.40;99.90
25436;DHT22;13363;52.772;-3.890;2023-04-06T15:31:44;13.50;99.90
25436;DHT22;13363;52.772;-3.890;2023-04-06T15:34:09;13.50;99.90